Terminal Aerodrome Forecast
Issued by NWS

Home | Current Version | Previous Version | Text Only | Print | Product List | Glossary On
Versions: 1 2 3 4 5 6 7 8 9 10 11 12 13 14 15 16
775
FTUS42 KILM 272333
TAFCRE
TAF
KCRE 272333Z 2800/2824 VRB03KT P6SM SCT020 SCT100
      TEMPO 2808/2812 3SM BR
     FM281400 20006KT P6SM FEW020 SCT200
     FM281700 17009KT P6SM VCSH SCT020 BKN200=

USA.gov is the U.S. government's official web portal to all federal, state and local government web resources and services.